createdAt,value
2018-07-12T00:01:16.960Z,94.27
2018-07-12T00:03:44.071Z,94.15
2018-07-12T00:06:11.166Z,94.00
2018-07-12T00:08:38.386Z,94.50
2018-07-12T00:11:05.504Z,93.87
2018-07-12T00:13:32.633Z,93.90
2018-07-12T00:15:59.750Z,94.31
2018-07-12T00:18:26.850Z,94.16
2018-07-12T00:20:53.960Z,93.98
2018-07-12T00:23:21.070Z,93.91
2018-07-12T00:25:48.167Z,94.01
2018-07-12T00:28:15.347Z,93.95
2018-07-12T00:30:42.453Z,94.32
2018-07-12T00:33:09.558Z,94.27
2018-07-12T00:35:36.663Z,93.94
2018-07-12T00:38:03.788Z,94.31
2018-07-12T00:40:30.876Z,94.51
2018-07-12T00:42:57.980Z,94.37
2018-07-12T00:45:25.105Z,94.25
2018-07-12T00:47:52.198Z,93.96
2018-07-12T00:50:19.300Z,94.22
2018-07-12T00:52:46.393Z,94.42
2018-07-12T00:55:13.497Z,94.23
2018-07-12T00:57:40.594Z,94.20
2018-07-12T01:00:07.719Z,94.70
2018-07-12T01:02:34.844Z,94.78
2018-07-12T01:05:01.956Z,94.72
2018-07-12T01:07:29.057Z,94.43
2018-07-12T01:09:56.159Z,94.45
2018-07-12T01:12:23.286Z,94.52
2018-07-12T01:14:50.389Z,94.73
2018-07-12T01:17:17.483Z,94.48
2018-07-12T01:19:44.594Z,94.35
2018-07-12T01:22:11.684Z,94.37
2018-07-12T01:24:38.804Z,94.16
2018-07-12T01:27:05.890Z,94.84
2018-07-12T01:29:32.974Z,94.47
2018-07-12T01:32:00.061Z,94.56
2018-07-12T01:34:27.192Z,94.54
2018-07-12T01:36:54.282Z,94.48
2018-07-12T01:39:21.399Z,94.92
2018-07-12T01:41:48.517Z,95.07
2018-07-12T01:44:15.607Z,94.65
2018-07-12T01:46:42.732Z,94.54
2018-07-12T01:49:09.832Z,94.30
2018-07-12T01:51:36.930Z,94.68
2018-07-12T01:54:04.019Z,94.65
2018-07-12T01:56:31.124Z,94.36
2018-07-12T01:58:58.252Z,94.42
2018-07-12T02:01:25.373Z,94.72
2018-07-12T02:03:52.465Z,95.00
2018-07-12T02:06:19.575Z,95.24
2018-07-12T02:08:46.681Z,95.08
2018-07-12T02:11:13.792Z,95.01
2018-07-12T02:13:40.905Z,95.20
2018-07-12T02:16:08.018Z,95.04
2018-07-12T02:18:35.106Z,95.10
2018-07-12T02:21:02.197Z,94.95
2018-07-12T02:23:29.329Z,94.85
2018-07-12T02:25:56.415Z,94.85
2018-07-12T02:28:23.519Z,94.45
2018-07-12T02:30:50.621Z,94.84
2018-07-12T02:33:17.730Z,94.90
2018-07-12T02:35:44.817Z,94.94
2018-07-12T02:38:11.922Z,94.83
2018-07-12T02:40:39.012Z,94.86
2018-07-12T02:43:06.115Z,94.55
2018-07-12T02:45:33.232Z,94.68
2018-07-12T02:48:00.351Z,94.85
2018-07-12T02:50:27.890Z,94.70
2018-07-12T02:52:55.073Z,94.98
2018-07-12T02:55:22.170Z,94.94
2018-07-12T02:57:49.252Z,94.91
2018-07-12T03:00:16.360Z,95.08
2018-07-12T03:02:43.831Z,94.98
2018-07-12T03:05:11.038Z,95.21
2018-07-12T03:07:38.146Z,95.18
2018-07-12T03:10:05.231Z,95.26
2018-07-12T03:12:32.350Z,95.24
2018-07-12T03:14:59.444Z,95.08
2018-07-12T03:17:26.568Z,95.02
2018-07-12T03:19:53.660Z,95.26
2018-07-12T03:22:20.772Z,95.19
2018-07-12T03:24:47.916Z,95.11
2018-07-12T03:27:15.028Z,94.94
2018-07-12T03:29:42.856Z,94.93
2018-07-12T03:32:09.946Z,94.67
2018-07-12T03:34:37.056Z,94.82
2018-07-12T03:37:04.148Z,95.12
2018-07-12T03:39:31.242Z,95.03
2018-07-12T03:41:58.348Z,95.06
2018-07-12T03:44:25.454Z,95.36
2018-07-12T03:46:52.549Z,95.25
2018-07-12T03:49:19.672Z,94.93
2018-07-12T03:51:46.773Z,94.89
2018-07-12T03:54:13.879Z,94.80
2018-07-12T03:56:40.970Z,94.93
2018-07-12T03:59:08.092Z,94.52
2018-07-12T04:01:35.196Z,94.65
2018-07-12T04:04:02.305Z,94.03
2018-07-12T04:06:29.423Z,94.20
2018-07-12T04:08:56.519Z,93.62
2018-07-12T04:11:23.623Z,93.12
2018-07-12T04:13:50.720Z,93.16
2018-07-12T04:16:17.805Z,92.88
2018-07-12T04:18:44.937Z,92.62
2018-07-12T04:21:12.042Z,92.18
2018-07-12T04:23:39.146Z,91.71
2018-07-12T04:26:06.262Z,92.03
2018-07-12T04:28:33.369Z,92.11
2018-07-12T04:31:00.524Z,91.72
2018-07-12T04:33:27.627Z,91.77
2018-07-12T04:35:54.759Z,91.71
2018-07-12T04:38:21.864Z,92.12
2018-07-12T04:40:49.005Z,92.22
2018-07-12T04:43:16.100Z,92.31
2018-07-12T04:45:43.208Z,92.49
2018-07-12T04:48:10.470Z,92.57
2018-07-12T04:50:38.151Z,92.41
2018-07-12T04:53:05.248Z,93.11
2018-07-12T04:55:32.422Z,92.93
2018-07-12T04:57:59.526Z,92.89
2018-07-12T05:00:26.659Z,93.28
2018-07-12T05:02:53.744Z,93.28
2018-07-12T05:05:20.849Z,92.87
2018-07-12T05:07:47.964Z,93.37
2018-07-12T05:10:15.084Z,93.28
2018-07-12T05:12:42.220Z,93.22
2018-07-12T05:15:09.341Z,93.04
2018-07-12T05:17:36.459Z,93.02
2018-07-12T05:20:03.617Z,93.42
2018-07-12T05:22:30.711Z,93.17
2018-07-12T05:24:57.814Z,93.44
2018-07-12T05:27:24.964Z,93.53
2018-07-12T05:29:52.068Z,92.27
2018-07-12T05:32:19.174Z,92.20
2018-07-12T05:34:47.422Z,91.53
2018-07-12T05:37:15.515Z,90.82
2018-07-12T05:39:43.606Z,90.78
2018-07-12T05:42:11.734Z,90.07
2018-07-12T05:44:39.863Z,90.01
2018-07-12T05:47:08.001Z,89.72
2018-07-12T05:49:36.130Z,87.90
2018-07-12T05:52:04.279Z,86.31
2018-07-12T05:54:32.417Z,84.71
2018-07-12T05:57:00.536Z,83.86
2018-07-12T05:59:28.672Z,84.43
2018-07-12T06:02:08.229Z,82.31
2018-07-12T06:04:36.348Z,78.77
2018-07-12T06:07:04.455Z,79.42
2018-07-12T06:09:32.598Z,79.65
2018-07-12T06:12:00.714Z,79.04
2018-07-12T06:14:28.816Z,80.98
2018-07-12T06:16:56.941Z,81.61
2018-07-12T06:19:25.072Z,81.85
2018-07-12T06:21:53.188Z,82.01
2018-07-12T06:24:21.296Z,78.91
2018-07-12T06:26:49.472Z,74.05
2018-07-12T06:29:17.586Z,67.03
2018-07-12T06:31:45.700Z,66.12
2018-07-12T06:34:13.832Z,69.01
2018-07-12T06:36:41.962Z,73.00
2018-07-12T06:39:11.167Z,71.30
2018-07-12T06:41:39.329Z,67.35
2018-07-12T06:44:07.461Z,65.46
2018-07-12T06:46:35.555Z,65.09
2018-07-12T06:49:03.693Z,64.17
2018-07-12T06:51:32.017Z,60.36
2018-07-12T06:54:00.171Z,59.54
2018-07-12T06:56:28.342Z,62.00
2018-07-12T06:58:56.423Z,61.22
2018-07-12T07:01:24.551Z,57.21
2018-07-12T07:03:52.658Z,54.75
2018-07-12T07:06:20.798Z,55.64
2018-07-12T07:08:48.908Z,53.84
2018-07-12T07:11:17.042Z,53.61
2018-07-12T07:13:45.190Z,53.01
2018-07-12T07:16:13.323Z,51.07
2018-07-12T07:18:41.452Z,54.49
2018-07-12T07:21:09.592Z,53.05
2018-07-12T07:23:37.772Z,54.79
2018-07-12T07:26:05.912Z,51.48
2018-07-12T07:28:33.986Z,55.12
2018-07-12T07:31:02.076Z,52.49
2018-07-12T07:33:30.150Z,50.43
2018-07-12T07:35:58.291Z,51.75
2018-07-12T07:38:26.371Z,50.55
2018-07-12T07:40:54.542Z,48.84
2018-07-12T07:43:22.617Z,48.89
2018-07-12T07:45:50.708Z,49.82
2018-07-12T07:48:18.816Z,48.72
2018-07-12T07:50:46.933Z,49.34
2018-07-12T07:53:15.021Z,47.57
2018-07-12T07:55:43.115Z,46.31
2018-07-12T07:58:11.195Z,46.01
2018-07-12T08:00:39.288Z,47.17
2018-07-12T08:03:07.546Z,47.29
2018-07-12T08:05:35.629Z,52.43
2018-07-12T08:08:03.736Z,51.12
2018-07-12T08:10:31.817Z,50.56
2018-07-12T08:12:59.936Z,48.78
2018-07-12T08:15:28.008Z,54.99
2018-07-12T08:17:56.127Z,54.43
2018-07-12T08:20:24.261Z,52.29
2018-07-12T08:22:52.432Z,53.09
2018-07-12T08:25:20.602Z,54.50
2018-07-12T08:28:00.250Z,53.71
2018-07-12T08:30:28.338Z,52.78
2018-07-12T08:32:56.426Z,54.91
2018-07-12T08:35:24.524Z,53.12
2018-07-12T08:37:52.645Z,55.87
2018-07-12T08:40:20.787Z,52.82
2018-07-12T08:42:48.929Z,53.62
2018-07-12T08:45:17.193Z,55.23
2018-07-12T08:47:45.327Z,52.73
2018-07-12T08:50:13.505Z,53.68
2018-07-12T08:52:41.674Z,56.38
2018-07-12T08:55:09.847Z,55.52
2018-07-12T08:57:38.044Z,58.69
2018-07-12T09:00:06.219Z,55.51
2018-07-12T09:02:34.377Z,57.32
2018-07-12T09:05:02.491Z,53.93
2018-07-12T09:07:30.620Z,53.16
2018-07-12T09:09:58.804Z,51.85
2018-07-12T09:12:26.943Z,51.91
2018-07-12T09:14:55.089Z,49.25
2018-07-12T09:17:23.258Z,48.87
2018-07-12T09:19:51.419Z,47.48
2018-07-12T09:22:19.549Z,48.97
2018-07-12T09:24:47.672Z,50.12
2018-07-12T09:27:15.936Z,51.46
2018-07-12T09:29:44.653Z,52.57
2018-07-12T09:32:12.745Z,51.85
2018-07-12T09:34:40.869Z,47.64
2018-07-12T09:37:09.137Z,50.37
2018-07-12T09:39:37.159Z,47.65
2018-07-12T09:42:05.316Z,50.04
2018-07-12T09:44:33.485Z,50.55
2018-07-12T09:47:01.604Z,50.41
2018-07-12T09:49:29.711Z,51.75
2018-07-12T09:51:57.852Z,50.73
2018-07-12T09:54:25.943Z,52.72
2018-07-12T09:57:05.476Z,54.14
2018-07-12T09:59:33.604Z,54.02
2018-07-12T10:02:07.225Z,51.49
2018-07-12T10:04:35.326Z,53.33
2018-07-12T10:07:08.890Z,49.10
2018-07-12T10:09:43.469Z,51.63
2018-07-12T10:12:15.752Z,48.07
2018-07-12T10:14:49.203Z,48.61
2018-07-12T10:17:22.624Z,46.88
2018-07-12T10:19:50.766Z,49.61
2018-07-12T10:22:18.936Z,51.51
2018-07-12T10:24:47.001Z,49.32
2018-07-12T10:27:15.143Z,50.14
2018-07-12T10:29:43.356Z,51.05
2018-07-12T10:32:11.524Z,53.67
2018-07-12T10:34:39.719Z,50.69
2018-07-12T10:37:07.833Z,49.86
2018-07-12T10:39:35.950Z,48.36
2018-07-12T10:42:04.082Z,47.35
2018-07-12T10:44:32.208Z,47.48
2018-07-12T10:47:00.296Z,47.70
2018-07-12T10:49:28.396Z,48.15
2018-07-12T10:51:56.525Z,48.48
2018-07-12T10:54:24.656Z,49.53
2018-07-12T10:56:52.739Z,50.55
2018-07-12T10:59:20.846Z,51.34
2018-07-12T11:01:48.962Z,48.63
2018-07-12T11:04:17.083Z,47.75
2018-07-12T11:06:45.201Z,46.26
2018-07-12T11:09:13.482Z,45.93
2018-07-12T11:11:42.016Z,46.71
2018-07-12T11:14:11.245Z,50.22
2018-07-12T11:16:39.448Z,50.33
2018-07-12T11:19:07.869Z,49.38
2018-07-12T11:21:35.950Z,51.94
2018-07-12T11:24:04.086Z,52.92
2018-07-12T11:26:32.188Z,49.41
2018-07-12T11:29:00.294Z,51.19
2018-07-12T11:31:28.403Z,49.31
2018-07-12T11:33:56.566Z,47.71
2018-07-12T11:36:24.700Z,48.19
2018-07-12T11:38:52.829Z,47.73
2018-07-12T11:41:20.976Z,47.45
2018-07-12T11:43:49.060Z,47.07
2018-07-12T11:46:17.225Z,47.05
2018-07-12T11:48:45.827Z,46.64
2018-07-12T11:51:14.000Z,46.15
2018-07-12T11:53:42.126Z,47.29
2018-07-12T11:56:10.289Z,45.49
2018-07-12T11:58:38.415Z,48.09
2018-07-12T12:01:07.136Z,46.06
2018-07-12T12:03:35.280Z,42.80
2018-07-12T12:06:03.445Z,44.92
2018-07-12T12:08:31.588Z,44.61
2018-07-12T12:10:59.752Z,44.81
2018-07-12T12:13:27.853Z,46.29
2018-07-12T12:15:56.001Z,50.73
2018-07-12T12:18:24.179Z,49.33
2018-07-12T12:20:52.340Z,48.13
2018-07-12T12:23:20.472Z,47.88
2018-07-12T12:25:48.596Z,46.63
2018-07-12T12:28:16.762Z,47.00
2018-07-12T12:30:44.940Z,47.29
2018-07-12T12:33:13.076Z,43.97
2018-07-12T12:35:41.131Z,46.34
2018-07-12T12:38:09.227Z,45.60
2018-07-12T12:40:37.331Z,47.37
2018-07-12T12:43:05.485Z,48.33
2018-07-12T12:45:33.596Z,50.00
2018-07-12T12:48:01.735Z,46.23
2018-07-12T12:50:29.873Z,49.66
2018-07-12T12:52:58.014Z,49.28
2018-07-12T12:55:26.170Z,49.36
2018-07-12T12:57:54.330Z,49.72
2018-07-12T13:00:22.463Z,50.88
2018-07-12T13:02:50.555Z,50.13
2018-07-12T13:05:18.672Z,49.25
2018-07-12T13:07:46.781Z,48.42
2018-07-12T13:10:14.906Z,48.20
2018-07-12T13:12:43.045Z,45.54
2018-07-12T13:15:11.164Z,43.96
2018-07-12T13:17:39.258Z,45.92
2018-07-12T13:20:07.422Z,45.46
2018-07-12T13:22:35.561Z,43.24
2018-07-12T13:25:03.699Z,44.81
2018-07-12T13:27:31.792Z,43.04
2018-07-12T13:29:59.912Z,41.63
2018-07-12T13:32:28.020Z,40.45
2018-07-12T13:34:56.140Z,41.95
2018-07-12T13:37:24.236Z,43.34
2018-07-12T13:39:52.361Z,41.90
2018-07-12T13:42:20.449Z,40.75
2018-07-12T13:44:48.562Z,44.26
2018-07-12T13:47:16.677Z,41.72
2018-07-12T13:49:44.849Z,45.08
2018-07-12T13:52:12.969Z,45.58
2018-07-12T13:54:41.061Z,47.25
2018-07-12T13:57:09.192Z,45.50
2018-07-12T13:59:37.320Z,47.46
2018-07-12T14:02:05.507Z,47.97
2018-07-12T14:04:33.670Z,47.68
2018-07-12T14:07:01.783Z,46.11
2018-07-12T14:09:29.939Z,45.82
2018-07-12T14:11:58.021Z,46.50
2018-07-12T14:14:26.119Z,46.82
2018-07-12T14:16:54.829Z,45.33
2018-07-12T14:19:23.000Z,45.89
2018-07-12T14:21:51.156Z,48.46
2018-07-12T14:24:19.396Z,47.59
2018-07-12T14:26:47.541Z,47.79
2018-07-12T14:29:16.239Z,46.65
2018-07-12T14:31:44.417Z,45.68
2018-07-12T14:34:12.528Z,44.85
2018-07-12T14:36:40.671Z,43.00
2018-07-12T14:39:09.512Z,44.35
2018-07-12T14:41:37.620Z,42.04
2018-07-12T14:44:05.828Z,45.15
2018-07-12T14:46:34.042Z,45.67
2018-07-12T14:49:02.307Z,47.00
2018-07-12T14:51:30.412Z,49.21
2018-07-12T14:53:58.556Z,48.36
2018-07-12T14:56:26.676Z,47.00
2018-07-12T14:58:54.795Z,47.88
2018-07-12T15:01:22.897Z,49.22
2018-07-12T15:03:51.031Z,48.51
2018-07-12T15:06:19.232Z,48.64
2018-07-12T15:08:47.377Z,49.05
2018-07-12T15:11:15.464Z,50.13
2018-07-12T15:13:43.580Z,51.53
2018-07-12T15:16:11.697Z,52.86
2018-07-12T15:18:39.828Z,50.99
2018-07-12T15:21:07.959Z,51.33
2018-07-12T15:23:36.147Z,51.23
2018-07-12T15:26:04.355Z,51.16
2018-07-12T15:28:32.813Z,48.68
2018-07-12T15:31:00.929Z,49.12
2018-07-12T15:33:29.020Z,50.54
2018-07-12T15:35:57.185Z,50.22
2018-07-12T15:38:25.324Z,51.14
2018-07-12T15:40:53.465Z,51.47
2018-07-12T15:43:21.646Z,51.25
2018-07-12T15:45:49.794Z,52.70
2018-07-12T15:48:17.860Z,52.97
2018-07-12T15:50:46.060Z,53.45
2018-07-12T15:53:14.196Z,54.69
2018-07-12T15:55:42.988Z,54.06
2018-07-12T15:58:11.045Z,53.59
2018-07-12T16:00:39.141Z,54.48
2018-07-12T16:03:07.270Z,57.00
2018-07-12T16:05:35.397Z,55.46
2018-07-12T16:08:03.512Z,57.00
2018-07-12T16:10:31.648Z,56.71
2018-07-12T16:12:59.821Z,57.21
2018-07-12T16:15:27.978Z,57.68
2018-07-12T16:17:56.098Z,58.38
2018-07-12T16:20:24.206Z,59.18
2018-07-12T16:22:52.699Z,58.82
2018-07-12T16:25:20.856Z,60.75
2018-07-12T16:27:48.947Z,59.40
2018-07-12T16:30:17.028Z,58.87
2018-07-12T16:32:45.173Z,59.58
2018-07-12T16:35:13.336Z,60.83
2018-07-12T16:37:41.488Z,60.08
2018-07-12T16:40:09.630Z,60.15
2018-07-12T16:42:37.748Z,60.88
2018-07-12T16:45:06.539Z,60.10
2018-07-12T16:47:34.648Z,60.52
2018-07-12T16:50:02.723Z,60.49
2018-07-12T16:52:30.833Z,61.64
2018-07-12T16:54:58.963Z,61.21
2018-07-12T16:57:27.052Z,61.82
2018-07-12T16:59:55.147Z,59.00
2018-07-12T17:02:23.274Z,59.81
2018-07-12T17:04:51.450Z,59.94
2018-07-12T17:07:19.722Z,59.57
2018-07-12T17:09:47.823Z,60.38
2018-07-12T17:12:15.920Z,59.53
2018-07-12T17:14:43.980Z,58.87
2018-07-12T17:17:12.102Z,59.70
2018-07-12T17:19:40.964Z,59.50
2018-07-12T17:22:09.032Z,58.72
2018-07-12T17:24:37.120Z,56.06
2018-07-12T17:27:05.243Z,55.61
2018-07-12T17:29:33.372Z,54.99
2018-07-12T17:32:01.457Z,53.28
2018-07-12T17:34:29.685Z,53.79
2018-07-12T17:36:57.812Z,53.04
2018-07-12T17:39:25.977Z,52.97
2018-07-12T17:41:54.117Z,52.51
2018-07-12T17:44:22.397Z,53.05
2018-07-12T17:46:50.545Z,52.74
2018-07-12T17:49:18.637Z,51.99
2018-07-12T17:51:46.789Z,53.23
2018-07-12T17:54:14.977Z,52.22
2018-07-12T17:56:43.063Z,52.79
2018-07-12T17:59:11.133Z,52.97
2018-07-12T18:01:39.247Z,53.31
2018-07-12T18:04:07.356Z,54.22
2018-07-12T18:06:35.456Z,55.07
2018-07-12T18:09:04.836Z,57.10
2018-07-12T18:11:33.014Z,57.34
2018-07-12T18:14:01.177Z,57.55
2018-07-12T18:16:29.292Z,57.91
2018-07-12T18:18:57.406Z,57.82
2018-07-12T18:21:25.503Z,59.34
2018-07-12T18:23:53.629Z,61.41
2018-07-12T18:26:21.761Z,59.60
2018-07-12T18:28:49.876Z,61.38
2018-07-12T18:31:17.944Z,60.85
2018-07-12T18:33:46.081Z,61.21
2018-07-12T18:36:14.196Z,62.22
2018-07-12T18:38:42.338Z,61.69
2018-07-12T18:41:10.498Z,62.43
2018-07-12T18:43:38.747Z,61.99
2018-07-12T18:46:06.820Z,62.51
2018-07-12T18:48:34.934Z,61.18
2018-07-12T18:51:03.034Z,62.36
2018-07-12T18:53:31.224Z,60.75
2018-07-12T18:55:59.438Z,61.20
2018-07-12T18:58:27.401Z,61.56
2018-07-12T19:00:55.754Z,61.82
2018-07-12T19:03:23.871Z,61.88
2018-07-12T19:05:52.001Z,63.44
2018-07-12T19:08:20.191Z,64.81
2018-07-12T19:10:48.380Z,64.62
2018-07-12T19:13:16.560Z,65.66
2018-07-12T19:15:44.678Z,65.21
2018-07-12T19:18:12.797Z,66.15
2018-07-12T19:20:40.928Z,67.16
2018-07-12T19:23:09.031Z,66.38
2018-07-12T19:25:37.203Z,66.38
2018-07-12T19:28:05.300Z,68.12
2018-07-12T19:30:33.393Z,68.78
2018-07-12T19:33:01.490Z,68.16
2018-07-12T19:35:29.610Z,68.93
2018-07-12T19:37:57.745Z,69.70
2018-07-12T19:40:25.874Z,69.68
2018-07-12T19:42:54.017Z,69.34
2018-07-12T19:45:22.162Z,69.85
2018-07-12T19:47:50.461Z,70.58
2018-07-12T19:50:18.917Z,70.93
2018-07-12T19:52:47.087Z,71.57
2018-07-12T19:55:15.178Z,72.07
2018-07-12T19:57:43.338Z,73.05
2018-07-12T20:00:11.453Z,72.89
2018-07-12T20:02:39.569Z,72.80
2018-07-12T20:05:07.706Z,74.37
2018-07-12T20:07:35.814Z,74.12
2018-07-12T20:10:03.927Z,74.57
2018-07-12T20:12:32.056Z,74.75
2018-07-12T20:15:00.173Z,75.17
2018-07-12T20:17:28.275Z,74.79
2018-07-12T20:19:56.371Z,75.91
2018-07-12T20:22:24.556Z,75.25
2018-07-12T20:24:52.692Z,75.40
2018-07-12T20:27:20.834Z,75.65
2018-07-12T20:29:48.939Z,75.99
2018-07-12T20:32:17.081Z,76.80
2018-07-12T20:34:45.240Z,77.79
2018-07-12T20:37:13.325Z,77.71
2018-07-12T20:39:41.399Z,77.64
2018-07-12T20:42:09.498Z,78.57
2018-07-12T20:44:37.623Z,77.79
2018-07-12T20:47:05.748Z,78.17
2018-07-12T20:49:33.901Z,77.88
2018-07-12T20:52:02.029Z,78.23
2018-07-12T20:54:30.117Z,77.98
2018-07-12T20:56:58.196Z,78.06
2018-07-12T20:59:26.319Z,78.43
2018-07-12T21:01:54.497Z,79.14
2018-07-12T21:04:22.588Z,78.87
2018-07-12T21:06:50.965Z,79.12
2018-07-12T21:09:19.056Z,79.73
2018-07-12T21:11:47.205Z,79.75
2018-07-12T21:14:15.340Z,80.33
2018-07-12T21:16:43.432Z,80.66
2018-07-12T21:19:11.549Z,80.38
2018-07-12T21:21:39.695Z,80.80
2018-07-12T21:24:07.888Z,80.82
2018-07-12T21:26:36.031Z,80.98
2018-07-12T21:29:04.132Z,80.80
2018-07-12T21:31:32.309Z,81.21
2018-07-12T21:34:00.439Z,81.31
2018-07-12T21:36:28.592Z,81.38
2018-07-12T21:38:56.741Z,81.48
2018-07-12T21:41:24.908Z,81.49
2018-07-12T21:43:53.053Z,81.73
2018-07-12T21:46:21.198Z,81.46
2018-07-12T21:48:50.066Z,81.31
2018-07-12T21:51:18.233Z,81.96
2018-07-12T21:53:46.344Z,82.59
2018-07-12T21:56:14.478Z,82.42
2018-07-12T21:58:42.616Z,83.11
2018-07-12T22:01:10.758Z,82.83
2018-07-12T22:03:38.881Z,82.48
2018-07-12T22:06:07.034Z,83.39
2018-07-12T22:08:35.209Z,82.84
2018-07-12T22:11:04.591Z,83.06
2018-07-12T22:13:33.907Z,83.01
2018-07-12T22:16:02.048Z,83.25
2018-07-12T22:18:30.239Z,83.15
2018-07-12T22:20:58.409Z,83.56
2018-07-12T22:23:26.716Z,83.63
2018-07-12T22:25:54.879Z,83.45
2018-07-12T22:28:23.040Z,84.04
2018-07-12T22:30:51.206Z,84.05
2018-07-12T22:33:19.388Z,83.89
2018-07-12T22:35:47.564Z,83.76
2018-07-12T22:38:15.722Z,83.20
2018-07-12T22:40:43.831Z,83.02
2018-07-12T22:43:11.968Z,83.39
2018-07-12T22:45:40.056Z,83.08
2018-07-12T22:48:08.254Z,83.01
2018-07-12T22:50:36.306Z,82.95
2018-07-12T22:53:04.468Z,83.09
2018-07-12T22:55:32.623Z,83.41
2018-07-12T22:58:00.766Z,83.39
2018-07-12T23:00:28.902Z,83.20
2018-07-12T23:02:57.072Z,83.14
2018-07-12T23:05:25.185Z,83.26
2018-07-12T23:07:53.443Z,82.51
2018-07-12T23:10:21.568Z,82.45
2018-07-12T23:12:49.696Z,82.73
2018-07-12T23:15:17.842Z,82.68
2018-07-12T23:17:45.986Z,82.72
2018-07-12T23:20:14.078Z,82.92
2018-07-12T23:22:42.248Z,83.00
2018-07-12T23:25:10.366Z,82.91
2018-07-12T23:27:38.457Z,82.64
2018-07-12T23:30:06.609Z,83.12
2018-07-12T23:32:34.736Z,82.39
2018-07-12T23:35:02.890Z,82.58
2018-07-12T23:37:30.988Z,83.03
2018-07-12T23:39:59.148Z,83.16
2018-07-12T23:42:27.311Z,83.47
2018-07-12T23:44:55.832Z,83.12
2018-07-12T23:47:23.991Z,82.51
2018-07-12T23:49:52.153Z,82.69
2018-07-12T23:52:20.303Z,82.85
2018-07-12T23:54:48.434Z,82.92
2018-07-12T23:57:16.581Z,82.76
2018-07-12T23:59:45.887Z,82.67
